createdAt,value
2023-02-25T00:00:19.555Z,94288.41
2023-02-25T00:02:50.145Z,94287.38
2023-02-25T00:05:19.928Z,94286.88
2023-02-25T00:07:49.028Z,94282.28
2023-02-25T00:10:20.639Z,94289.84
2023-02-25T00:12:49.641Z,94283.16
2023-02-25T00:15:18.716Z,94280.00
2023-02-25T00:17:50.058Z,94270.59
2023-02-25T00:20:21.760Z,94269.69
2023-02-25T00:22:50.784Z,94273.03
2023-02-25T00:25:21.166Z,94282.69
2023-02-25T00:27:50.226Z,94273.94
2023-02-25T00:30:19.337Z,94271.72
2023-02-25T00:32:48.330Z,94275.97
2023-02-25T00:35:17.518Z,94276.63
2023-02-25T00:37:46.379Z,94267.94
2023-02-25T00:40:16.029Z,94270.94
2023-02-25T00:42:46.379Z,94268.44
2023-02-25T00:45:15.470Z,94254.03
2023-02-25T00:47:44.445Z,94247.97
2023-02-25T00:50:14.586Z,94235.66
2023-02-25T00:52:43.452Z,94243.09
2023-02-25T00:55:12.534Z,94231.78
2023-02-25T00:57:43.401Z,94229.88
2023-02-25T01:00:17.271Z,94228.38
2023-02-25T01:02:47.269Z,94232.53
2023-02-25T01:05:17.168Z,94230.81
2023-02-25T01:07:47.174Z,94226.00
2023-02-25T01:10:16.271Z,94222.91
2023-02-25T01:12:45.272Z,94217.88
2023-02-25T01:15:15.937Z,94218.69
2023-02-25T01:17:44.863Z,94220.50
2023-02-25T01:20:14.191Z,94210.44
2023-02-25T01:22:43.164Z,94217.41
2023-02-25T01:25:16.569Z,94218.44
2023-02-25T01:27:45.522Z,94218.44
2023-02-25T01:30:16.084Z,94223.25
2023-02-25T01:32:45.280Z,94216.03
2023-02-25T01:35:14.708Z,94206.88
2023-02-25T01:37:44.130Z,94201.75
2023-02-25T01:40:17.339Z,94209.28
2023-02-25T01:42:47.627Z,94202.31
2023-02-25T01:45:31.649Z,94199.34
2023-02-25T01:48:11.047Z,94204.91
2023-02-25T01:50:48.313Z,94197.75
2023-02-25T01:53:21.437Z,94199.88
2023-02-25T01:55:50.279Z,94201.19
2023-02-25T01:58:20.152Z,94204.09
2023-02-25T02:00:55.758Z,94205.06
2023-02-25T02:03:28.460Z,94202.53
2023-02-25T02:06:04.570Z,94193.63
2023-02-25T02:08:36.046Z,94188.72
2023-02-25T02:11:06.420Z,94181.53
2023-02-25T02:13:38.779Z,94190.00
2023-02-25T02:16:22.325Z,94175.47
2023-02-25T02:18:57.580Z,94178.69
2023-02-25T02:21:56.578Z,94183.34
2023-02-25T02:25:00.294Z,94169.16
2023-02-25T02:27:43.877Z,94157.63
2023-02-25T02:30:41.186Z,94155.34
2023-02-25T02:33:19.972Z,94149.75
2023-02-25T02:35:57.382Z,94146.00
2023-02-25T02:38:37.439Z,94144.25
2023-02-25T02:41:12.706Z,94141.53
2023-02-25T02:43:47.324Z,94144.97
2023-02-25T02:46:22.902Z,94138.53
2023-02-25T02:48:57.996Z,94143.81
2023-02-25T02:51:35.841Z,94140.03
2023-02-25T02:54:07.981Z,94149.19
2023-02-25T02:56:40.574Z,94140.34
2023-02-25T02:59:13.077Z,94144.69
2023-02-25T03:01:47.909Z,94141.28
2023-02-25T03:04:23.572Z,94140.44
2023-02-25T03:06:56.550Z,94138.97
2023-02-25T03:09:33.393Z,94145.34
2023-02-25T03:12:02.687Z,94141.31
2023-02-25T03:14:35.158Z,94139.22
2023-02-25T03:17:09.047Z,94143.44
2023-02-25T03:19:43.952Z,94139.59
2023-02-25T03:22:16.955Z,94131.94
2023-02-25T03:24:56.471Z,94132.91
2023-02-25T03:27:29.845Z,94146.06
2023-02-25T03:30:12.896Z,94147.31
2023-02-25T03:32:45.093Z,94142.19
2023-02-25T03:35:19.377Z,94135.78
2023-02-25T03:38:07.802Z,94139.66
2023-02-25T03:40:39.411Z,94137.19
2023-02-25T03:43:14.862Z,94137.53
2023-02-25T03:45:47.951Z,94129.56
2023-02-25T03:48:19.676Z,94143.94
2023-02-25T03:50:55.968Z,94138.66
2023-02-25T03:53:25.019Z,94120.97
2023-02-25T03:56:11.441Z,94127.59
2023-02-25T03:58:44.219Z,94121.72
2023-02-25T04:01:17.428Z,94122.03
2023-02-25T04:03:46.612Z,94126.06
2023-02-25T04:06:22.553Z,94128.69
2023-02-25T04:08:52.890Z,94140.75
2023-02-25T04:11:21.996Z,94124.25
2023-02-25T04:13:51.470Z,94115.94
2023-02-25T04:16:21.393Z,94103.63
2023-02-25T04:18:50.667Z,94112.22
2023-02-25T04:21:30.590Z,94102.94
2023-02-25T04:24:01.288Z,94105.41
2023-02-25T04:26:31.260Z,94098.72
2023-02-25T04:29:00.327Z,94102.38
2023-02-25T04:31:29.532Z,94096.09
2023-02-25T04:33:58.501Z,94094.66
2023-02-25T04:36:32.770Z,94085.75
2023-02-25T04:39:03.798Z,94097.41
2023-02-25T04:41:34.426Z,94090.72
2023-02-25T04:44:05.348Z,94082.09
2023-02-25T04:46:35.778Z,94082.84
2023-02-25T04:49:05.763Z,94078.75
2023-02-25T04:51:36.877Z,94079.19
2023-02-25T04:54:06.306Z,94088.13
2023-02-25T04:56:35.320Z,94075.91
2023-02-25T04:59:04.374Z,94089.75
2023-02-25T05:01:34.078Z,94088.13
2023-02-25T05:04:03.094Z,94083.09
2023-02-25T05:06:32.546Z,94086.63
2023-02-25T05:09:03.159Z,94080.72
2023-02-25T05:11:33.039Z,94079.97
2023-02-25T05:14:02.064Z,94087.16
2023-02-25T05:16:31.160Z,94091.34
2023-02-25T05:19:00.242Z,94094.94
2023-02-25T05:21:32.564Z,94092.06
2023-02-25T05:24:03.007Z,94086.69
2023-02-25T05:26:32.454Z,94102.34
2023-02-25T05:29:01.430Z,94093.81
2023-02-25T05:31:30.637Z,94100.78
2023-02-25T05:33:59.746Z,94109.59
2023-02-25T05:36:30.086Z,94105.63
2023-02-25T05:39:03.067Z,94107.69
2023-02-25T05:41:34.911Z,94109.63
2023-02-25T05:44:06.206Z,94097.53
2023-02-25T05:46:35.622Z,94105.66
2023-02-25T05:49:04.978Z,94105.41
2023-02-25T05:51:34.053Z,94112.28
2023-02-25T05:54:03.240Z,94116.72
2023-02-25T05:56:33.610Z,94114.19
2023-02-25T05:59:02.528Z,94112.28
2023-02-25T06:01:31.952Z,94127.81
2023-02-25T06:04:01.448Z,94130.66
2023-02-25T06:06:32.198Z,94133.16
2023-02-25T06:09:01.400Z,94127.88
2023-02-25T06:11:33.419Z,94123.50
2023-02-25T06:14:03.828Z,94120.69
2023-02-25T06:16:33.287Z,94116.66
2023-02-25T06:19:03.061Z,94113.41
2023-02-25T06:21:32.547Z,94111.22
2023-02-25T06:24:04.153Z,94113.53
2023-02-25T06:26:42.024Z,94117.94
2023-02-25T06:29:11.417Z,94118.22
2023-02-25T06:31:40.514Z,94114.16
2023-02-25T06:34:09.650Z,94106.97
2023-02-25T06:36:38.700Z,94094.00
2023-02-25T06:39:08.323Z,94094.72
2023-02-25T06:41:38.955Z,94093.78
2023-02-25T06:44:07.946Z,94091.38
2023-02-25T06:46:37.129Z,94104.78
2023-02-25T06:49:06.201Z,94105.53
2023-02-25T06:51:35.499Z,94085.22
2023-02-25T06:54:06.095Z,94085.47
2023-02-25T06:56:35.221Z,94086.25
2023-02-25T06:59:05.582Z,94086.03
2023-02-25T07:01:34.694Z,94083.28
2023-02-25T07:04:03.858Z,94079.16
2023-02-25T07:06:33.263Z,94082.03
2023-02-25T07:09:02.384Z,94084.25
2023-02-25T07:11:34.816Z,94074.78
2023-02-25T07:14:07.004Z,94071.25
2023-02-25T07:16:36.008Z,94057.16
2023-02-25T07:19:05.070Z,94052.78
2023-02-25T07:21:34.147Z,94048.16
2023-02-25T07:24:03.183Z,94048.69
2023-02-25T07:26:32.236Z,94037.84
2023-02-25T07:29:01.729Z,94029.59
2023-02-25T07:31:32.381Z,94037.84
2023-02-25T07:34:03.801Z,94040.00
2023-02-25T07:36:33.696Z,94030.94
2023-02-25T07:39:04.422Z,94025.06
2023-02-25T07:41:33.864Z,94028.69
2023-02-25T07:44:05.868Z,94031.84
2023-02-25T07:46:36.750Z,94037.69
2023-02-25T07:49:05.919Z,94030.53
2023-02-25T07:51:35.039Z,94028.47
2023-02-25T07:54:04.148Z,94023.22
2023-02-25T07:56:33.607Z,94036.41
2023-02-25T07:59:02.736Z,94029.13
2023-02-25T08:01:35.009Z,94019.63
2023-02-25T08:04:10.651Z,94027.38
2023-02-25T08:06:42.785Z,94016.53
2023-02-25T08:09:12.717Z,94016.31
2023-02-25T08:11:42.982Z,94024.28
2023-02-25T08:14:12.380Z,94025.13
2023-02-25T08:16:41.760Z,94019.38
2023-02-25T08:19:12.185Z,94016.94
2023-02-25T08:21:41.657Z,94011.38
2023-02-25T08:24:11.273Z,94005.25
2023-02-25T08:26:41.495Z,94001.22
2023-02-25T08:29:10.697Z,93982.34
2023-02-25T08:31:39.879Z,93990.00
2023-02-25T08:34:09.270Z,93973.81
2023-02-25T08:36:39.978Z,93988.91
2023-02-25T08:39:09.344Z,93977.72
2023-02-25T08:41:39.380Z,93982.78
2023-02-25T08:44:08.567Z,93984.09
2023-02-25T08:46:40.626Z,93973.53
2023-02-25T08:49:09.800Z,93974.34
2023-02-25T08:51:41.069Z,93960.31
2023-02-25T08:54:14.076Z,93960.81
2023-02-25T08:56:44.764Z,93962.41
2023-02-25T08:59:16.424Z,93966.38
2023-02-25T09:01:49.359Z,93957.09
2023-02-25T09:04:20.333Z,93970.38
2023-02-25T09:06:52.089Z,93990.88
2023-02-25T09:09:22.223Z,93985.78
2023-02-25T09:11:51.806Z,93983.16
2023-02-25T09:14:21.589Z,93974.69
2023-02-25T09:16:50.744Z,93981.59
2023-02-25T09:19:21.003Z,93985.81
2023-02-25T09:21:51.641Z,93989.53
2023-02-25T09:24:20.818Z,93982.88
2023-02-25T09:26:49.868Z,93990.84
2023-02-25T09:29:19.162Z,93983.66
2023-02-25T09:31:48.438Z,93986.06
2023-02-25T09:34:18.479Z,93982.03
2023-02-25T09:36:47.753Z,93978.03
2023-02-25T09:39:18.172Z,93982.78
2023-02-25T09:41:52.894Z,93975.59
2023-02-25T09:44:28.599Z,93966.00
2023-02-25T09:47:03.760Z,93946.59
2023-02-25T09:49:37.814Z,93951.84
2023-02-25T09:52:14.241Z,93941.22
2023-02-25T09:54:48.015Z,93939.63
2023-02-25T09:57:20.864Z,93933.03
2023-02-25T09:59:52.309Z,93926.66
2023-02-25T10:02:28.854Z,93929.31
2023-02-25T10:05:15.920Z,93923.50
2023-02-25T10:07:59.383Z,93918.69
2023-02-25T10:10:39.830Z,93912.53
2023-02-25T10:13:21.924Z,93912.53
2023-02-25T10:16:00.522Z,93910.41
2023-02-25T10:18:46.397Z,93908.22
2023-02-25T10:21:28.498Z,93903.16
2023-02-25T10:24:12.798Z,93903.16
2023-02-25T10:26:46.836Z,93894.66
2023-02-25T10:29:29.711Z,93889.88
2023-02-25T10:32:01.436Z,93890.34
2023-02-25T10:34:33.456Z,93886.91
2023-02-25T10:37:02.509Z,93883.44
2023-02-25T10:39:32.131Z,93877.06
2023-02-25T10:42:02.691Z,93863.22
2023-02-25T10:44:31.795Z,93872.28
2023-02-25T10:47:05.309Z,93881.22
2023-02-25T10:49:38.730Z,93882.03
2023-02-25T10:52:15.985Z,93870.59
2023-02-25T10:54:50.492Z,93851.44
2023-02-25T10:57:27.756Z,93856.47
2023-02-25T11:00:02.248Z,93851.59
2023-02-25T11:02:39.141Z,93859.22
2023-02-25T11:05:08.622Z,93861.00
2023-02-25T11:07:42.969Z,93853.81
2023-02-25T11:10:17.466Z,93851.34
2023-02-25T11:12:52.735Z,93847.03
2023-02-25T11:15:44.664Z,93844.00
2023-02-25T11:18:22.322Z,93837.72
2023-02-25T11:20:56.069Z,93834.03
2023-02-25T11:23:30.403Z,93829.47
2023-02-25T11:25:59.830Z,93826.25
2023-02-25T11:28:34.568Z,93831.22
2023-02-25T11:31:12.297Z,93832.81
2023-02-25T11:33:45.410Z,93836.19
2023-02-25T11:36:14.660Z,93828.97
2023-02-25T11:38:44.546Z,93817.75
2023-02-25T11:41:19.271Z,93816.16
2023-02-25T11:43:54.513Z,93809.69
2023-02-25T11:46:28.369Z,93811.50
2023-02-25T11:49:03.665Z,93804.44
2023-02-25T11:51:39.007Z,93802.56
2023-02-25T11:54:24.143Z,93804.44
2023-02-25T11:56:59.065Z,93802.16
2023-02-25T11:59:37.377Z,93799.69
2023-02-25T12:02:25.542Z,93799.91
2023-02-25T12:05:27.282Z,93789.75
2023-02-25T12:08:13.813Z,93787.59
2023-02-25T12:11:09.114Z,93784.84
2023-02-25T12:14:15.459Z,93788.81
2023-02-25T12:17:28.467Z,93785.34
2023-02-25T12:20:26.772Z,93767.19
2023-02-25T12:23:27.451Z,93766.75
2023-02-25T12:26:02.141Z,93765.66
2023-02-25T12:28:53.593Z,93763.28
2023-02-25T12:31:55.366Z,93758.00
2023-02-25T12:34:46.233Z,93748.84
2023-02-25T12:37:36.232Z,93745.38
2023-02-25T12:40:21.977Z,93734.13
2023-02-25T12:43:00.533Z,93745.81
2023-02-25T12:45:44.459Z,93742.41
2023-02-25T12:49:01.275Z,93747.19
2023-02-25T12:51:52.318Z,93749.44
2023-02-25T12:54:46.793Z,93739.75
2023-02-25T12:57:33.293Z,93745.38
2023-02-25T13:00:24.129Z,93738.66
2023-02-25T13:03:08.353Z,93734.13
2023-02-25T13:05:57.441Z,93728.22
2023-02-25T13:08:40.745Z,93736.13
2023-02-25T13:11:24.050Z,93712.72
2023-02-25T13:14:32.097Z,93713.59
2023-02-25T13:17:22.980Z,93704.72
2023-02-25T13:20:38.008Z,93707.88
2023-02-25T13:23:28.487Z,93709.44
2023-02-25T13:26:10.888Z,93702.13
2023-02-25T13:29:17.916Z,93702.63
2023-02-25T13:31:53.223Z,93709.63
2023-02-25T13:34:33.656Z,93715.56
2023-02-25T13:37:19.861Z,93699.16
2023-02-25T13:40:06.963Z,93696.09
2023-02-25T13:42:54.682Z,93707.94
2023-02-25T13:45:51.059Z,93707.25
2023-02-25T13:48:51.666Z,93690.81
2023-02-25T13:52:01.278Z,93697.13
2023-02-25T13:54:52.293Z,93699.44
2023-02-25T13:57:41.871Z,93691.22
2023-02-25T14:00:46.963Z,93700.28
2023-02-25T14:03:49.371Z,93685.09
2023-02-25T14:06:37.117Z,93694.28
2023-02-25T14:09:32.561Z,93690.47
2023-02-25T14:12:13.180Z,93699.22
2023-02-25T14:15:17.945Z,93684.19
2023-02-25T14:18:22.653Z,93692.97
2023-02-25T14:21:04.570Z,93682.81
2023-02-25T14:23:46.090Z,93677.59
2023-02-25T14:26:33.795Z,93667.66
2023-02-25T14:29:18.432Z,93673.78
2023-02-25T14:32:15.377Z,93669.13
2023-02-25T14:34:56.349Z,93665.19
2023-02-25T14:37:38.058Z,93668.41
2023-02-25T14:40:25.205Z,93666.53
2023-02-25T14:43:20.414Z,93677.50
2023-02-25T14:45:56.550Z,93679.28
2023-02-25T14:48:31.889Z,93682.25
2023-02-25T14:51:35.466Z,93670.00
2023-02-25T14:54:38.691Z,93672.16
2023-02-25T14:57:40.698Z,93680.25
2023-02-25T15:00:37.045Z,93678.19
2023-02-25T15:03:28.900Z,93684.88
2023-02-25T15:06:08.401Z,93692.88
2023-02-25T15:09:04.286Z,93697.13
2023-02-25T15:11:46.496Z,93690.50
2023-02-25T15:14:52.279Z,93696.72
2023-02-25T15:18:15.148Z,93698.00
2023-02-25T15:20:44.943Z,93694.16
2023-02-25T15:23:16.739Z,93705.63
2023-02-25T15:25:50.068Z,93711.16
2023-02-25T15:28:44.558Z,93714.41
2023-02-25T15:31:39.064Z,93713.41
2023-02-25T15:34:35.521Z,93716.97
2023-02-25T15:37:23.408Z,93719.41
2023-02-25T15:39:56.461Z,93724.66
2023-02-25T15:42:49.744Z,93723.34
2023-02-25T15:45:41.350Z,93732.44
2023-02-25T15:48:33.931Z,93736.75
2023-02-25T15:51:06.626Z,93736.25
2023-02-25T15:53:41.685Z,93737.97
2023-02-25T15:56:32.565Z,93737.31
2023-02-25T15:59:03.790Z,93733.66
2023-02-25T16:01:46.313Z,93732.94
2023-02-25T16:04:46.001Z,93735.59
2023-02-25T16:07:17.874Z,93733.03
2023-02-25T16:09:53.319Z,93738.78
2023-02-25T16:12:23.927Z,93744.91
2023-02-25T16:14:54.313Z,93740.66
2023-02-25T16:17:28.790Z,93753.69
2023-02-25T16:20:01.619Z,93762.75
2023-02-25T16:22:32.954Z,93756.06
2023-02-25T16:25:03.369Z,93756.09
2023-02-25T16:27:55.603Z,93756.09
2023-02-25T16:30:32.621Z,93749.63
2023-02-25T16:33:14.509Z,93762.66
2023-02-25T16:35:55.360Z,93763.81
2023-02-25T16:38:38.037Z,93772.91
2023-02-25T16:41:08.583Z,93774.56
2023-02-25T16:43:39.566Z,93779.97
2023-02-25T16:46:11.226Z,93782.34
2023-02-25T16:48:50.478Z,93780.75
2023-02-25T16:51:26.300Z,93786.88
2023-02-25T16:54:00.126Z,93786.06
2023-02-25T16:56:36.566Z,93788.97
2023-02-25T16:59:08.913Z,93785.13
2023-02-25T17:01:40.104Z,93785.13
2023-02-25T17:04:19.962Z,93795.03
2023-02-25T17:07:08.604Z,93797.13
2023-02-25T17:09:37.940Z,93797.03
2023-02-25T17:12:07.174Z,93792.09
2023-02-25T17:14:37.424Z,93806.97
2023-02-25T17:17:06.651Z,93796.97
2023-02-25T17:19:37.159Z,93797.25
2023-02-25T17:22:07.134Z,93787.03
2023-02-25T17:24:36.683Z,93789.97
2023-02-25T17:27:13.107Z,93787.31
2023-02-25T17:29:43.567Z,93781.31
2023-02-25T17:32:23.573Z,93773.00
2023-02-25T17:34:57.391Z,93764.84
2023-02-25T17:37:29.093Z,93756.66
2023-02-25T17:39:59.213Z,93761.91
2023-02-25T17:42:32.962Z,93766.50
2023-02-25T17:45:03.014Z,93761.69
2023-02-25T17:47:35.660Z,93753.72
2023-02-25T17:50:28.177Z,93754.59
2023-02-25T17:52:58.593Z,93755.91
2023-02-25T17:55:31.218Z,93747.59
2023-02-25T17:58:02.130Z,93740.41
2023-02-25T18:00:33.745Z,93742.03
2023-02-25T18:03:17.115Z,93736.22
2023-02-25T18:05:52.487Z,93746.94
2023-02-25T18:08:23.475Z,93745.63
2023-02-25T18:11:20.029Z,93740.50
2023-02-25T18:13:49.263Z,93745.91
2023-02-25T18:16:40.519Z,93743.13
2023-02-25T18:19:38.936Z,93746.56
2023-02-25T18:22:25.427Z,93745.53
2023-02-25T18:24:55.822Z,93746.56
2023-02-25T18:27:29.547Z,93733.56
2023-02-25T18:30:01.999Z,93733.84
2023-02-25T18:32:33.327Z,93743.69
2023-02-25T18:35:02.521Z,93741.03
2023-02-25T18:37:35.193Z,93743.69
2023-02-25T18:40:04.357Z,93738.63
2023-02-25T18:42:33.602Z,93735.41
2023-02-25T18:45:02.654Z,93742.59
2023-02-25T18:47:32.025Z,93750.59
2023-02-25T18:50:01.108Z,93743.13
2023-02-25T18:52:33.762Z,93730.06
2023-02-25T18:55:02.923Z,93730.66
2023-02-25T18:57:32.179Z,93732.25
2023-02-25T19:00:01.390Z,93746.34
2023-02-25T19:02:34.315Z,93735.41
2023-02-25T19:05:04.323Z,93737.56
2023-02-25T19:07:36.442Z,93737.84
2023-02-25T19:10:07.136Z,93733.91
2023-02-25T19:12:36.998Z,93737.38
2023-02-25T19:15:08.947Z,93710.97
2023-02-25T19:17:39.120Z,93747.94
2023-02-25T19:20:11.694Z,93734.63
2023-02-25T19:22:44.892Z,93743.16
2023-02-25T19:25:21.555Z,93744.19
2023-02-25T19:27:51.289Z,93749.22
2023-02-25T19:30:22.777Z,93755.63
2023-02-25T19:32:52.249Z,93758.00
2023-02-25T19:35:21.243Z,93753.72
2023-02-25T19:37:51.729Z,93751.44
2023-02-25T19:40:21.088Z,93751.38
2023-02-25T19:42:50.414Z,93752.72
2023-02-25T19:45:22.230Z,93735.13
2023-02-25T19:47:51.851Z,93746.56
2023-02-25T19:50:25.041Z,93744.19
2023-02-25T19:52:55.827Z,93747.13
2023-02-25T19:55:24.932Z,93750.16
2023-02-25T19:57:54.139Z,93749.88
2023-02-25T20:00:26.097Z,93741.88
2023-02-25T20:02:56.486Z,93745.38
2023-02-25T20:05:26.232Z,93755.56
2023-02-25T20:07:56.968Z,93750.94
2023-02-25T20:10:26.074Z,93750.66
2023-02-25T20:12:55.064Z,93745.34
2023-02-25T20:15:24.170Z,93742.72
2023-02-25T20:17:55.280Z,93744.75
2023-02-25T20:20:24.402Z,93751.94
2023-02-25T20:22:53.623Z,93752.25
2023-02-25T20:25:24.229Z,93751.72
2023-02-25T20:27:54.484Z,93750.47
2023-02-25T20:30:24.175Z,93749.63
2023-02-25T20:32:53.254Z,93746.97
2023-02-25T20:35:26.289Z,93748.59
2023-02-25T20:38:10.510Z,93745.94
2023-02-25T20:40:41.162Z,93740.44
2023-02-25T20:43:11.786Z,93744.19
2023-02-25T20:45:41.253Z,93750.03
2023-02-25T20:48:26.885Z,93744.16
2023-02-25T20:50:56.257Z,93750.69
2023-02-25T20:53:25.769Z,93746.91
2023-02-25T20:55:58.618Z,93743.47
2023-02-25T20:58:27.728Z,93747.13
2023-02-25T21:00:57.496Z,93743.66
2023-02-25T21:03:26.440Z,93753.22
2023-02-25T21:05:55.528Z,93747.63
2023-02-25T21:08:24.520Z,93743.66
2023-02-25T21:10:53.848Z,93741.34
2023-02-25T21:13:24.415Z,93729.47
2023-02-25T21:15:53.462Z,93742.16
2023-02-25T21:18:22.478Z,93737.63
2023-02-25T21:20:58.211Z,93733.63
2023-02-25T21:23:27.575Z,93729.41
2023-02-25T21:25:56.976Z,93732.88
2023-02-25T21:28:27.982Z,93739.72
2023-02-25T21:31:02.513Z,93729.88
2023-02-25T21:33:33.115Z,93730.47
2023-02-25T21:36:02.826Z,93724.63
2023-02-25T21:38:32.229Z,93730.16
2023-02-25T21:41:06.934Z,93725.81
2023-02-25T21:43:37.894Z,93731.06
2023-02-25T21:46:11.721Z,93730.47
2023-02-25T21:48:42.115Z,93736.84
2023-02-25T21:51:17.461Z,93726.94
2023-02-25T21:53:46.990Z,93726.47
2023-02-25T21:56:17.856Z,93728.34
2023-02-25T21:58:48.690Z,93725.44
2023-02-25T22:01:20.856Z,93725.78
2023-02-25T22:03:50.284Z,93721.72
2023-02-25T22:06:19.490Z,93725.28
2023-02-25T22:08:48.630Z,93724.44
2023-02-25T22:11:20.311Z,93728.06
2023-02-25T22:13:51.198Z,93726.81
2023-02-25T22:16:21.207Z,93731.78
2023-02-25T22:18:51.237Z,93737.06
2023-02-25T22:21:23.534Z,93727.63
2023-02-25T22:23:54.136Z,93728.69
2023-02-25T22:26:25.889Z,93731.75
2023-02-25T22:28:57.962Z,93736.50
2023-02-25T22:31:27.953Z,93742.94
2023-02-25T22:33:58.816Z,93743.75
2023-02-25T22:36:28.084Z,93737.13
2023-02-25T22:38:57.272Z,93736.56
2023-02-25T22:41:28.325Z,93738.41
2023-02-25T22:44:00.437Z,93734.00
2023-02-25T22:46:31.222Z,93734.44
2023-02-25T22:49:00.840Z,93734.97
2023-02-25T22:51:35.644Z,93743.50
2023-02-25T22:54:05.369Z,93753.06
2023-02-25T22:56:34.411Z,93746.22
2023-02-25T22:59:04.883Z,93754.13
2023-02-25T23:01:34.964Z,93760.75
2023-02-25T23:04:04.463Z,93753.84
2023-02-25T23:06:43.478Z,93751.19
2023-02-25T23:09:13.761Z,93748.81
2023-02-25T23:11:45.147Z,93753.41
2023-02-25T23:14:16.590Z,93758.66
2023-02-25T23:16:47.202Z,93761.84
2023-02-25T23:19:17.512Z,93768.75
2023-02-25T23:21:46.519Z,93763.19
2023-02-25T23:24:19.215Z,93769.63
2023-02-25T23:26:50.889Z,93768.03
2023-02-25T23:29:23.189Z,93772.22
2023-02-25T23:31:52.384Z,93765.03
2023-02-25T23:34:23.507Z,93764.88
2023-02-25T23:36:56.774Z,93755.31
2023-02-25T23:39:26.070Z,93760.91
2023-02-25T23:41:55.263Z,93752.38
2023-02-25T23:44:25.983Z,93745.44
2023-02-25T23:46:55.226Z,93745.44
2023-02-25T23:49:24.238Z,93740.91
2023-02-25T23:51:53.240Z,93750.50
2023-02-25T23:54:24.231Z,93744.91
2023-02-25T23:56:53.299Z,93743.88
2023-02-25T23:59:25.225Z,93735.34
